sensor_id;sensor_type;location;lat;lon;timestamp;pressure;altitude;pressure_sealevel;temperature;humidity
60852;BME280;48553;50.766;2.900;2023-03-01T00:02:14;102356.06;;;2.51;65.27
60852;BME280;48553;50.766;2.900;2023-03-01T00:05:14;102349.00;;;2.50;65.74
60852;BME280;48553;50.766;2.900;2023-03-01T00:08:15;102356.31;;;2.50;65.86
60852;BME280;48553;50.766;2.900;2023-03-01T00:11:27;102358.44;;;2.48;65.70
60852;BME280;48553;50.766;2.900;2023-03-01T00:14:28;102358.91;;;2.45;65.84
60852;BME280;48553;50.766;2.900;2023-03-01T00:17:28;102361.03;;;2.43;65.62
60852;BME280;48553;50.766;2.900;2023-03-01T00:20:29;102353.75;;;2.43;65.74
60852;BME280;48553;50.766;2.900;2023-03-01T00:23:29;102358.00;;;2.39;66.01
60852;BME280;48553;50.766;2.900;2023-03-01T00:26:30;102352.59;;;2.39;65.64
60852;BME280;48553;50.766;2.900;2023-03-01T00:29:30;102354.72;;;2.37;66.10
60852;BME280;48553;50.766;2.900;2023-03-01T00:32:31;102350.91;;;2.38;66.09
60852;BME280;48553;50.766;2.900;2023-03-01T00:35:35;102346.34;;;2.39;66.19
60852;BME280;48553;50.766;2.900;2023-03-01T00:38:37;102343.28;;;2.35;66.13
60852;BME280;48553;50.766;2.900;2023-03-01T00:41:38;102347.06;;;2.34;66.11
60852;BME280;48553;50.766;2.900;2023-03-01T00:44:40;102347.31;;;2.33;66.58
60852;BME280;48553;50.766;2.900;2023-03-01T00:47:40;102342.94;;;2.32;66.44
60852;BME280;48553;50.766;2.900;2023-03-01T00:50:41;102339.44;;;2.31;66.16
60852;BME280;48553;50.766;2.900;2023-03-01T00:53:42;102336.72;;;2.31;66.05
60852;BME280;48553;50.766;2.900;2023-03-01T00:56:43;102338.25;;;2.27;66.52
60852;BME280;48553;50.766;2.900;2023-03-01T00:59:43;102337.72;;;2.25;66.29
60852;BME280;48553;50.766;2.900;2023-03-01T01:02:44;102333.34;;;2.24;66.74
60852;BME280;48553;50.766;2.900;2023-03-01T01:05:44;102335.81;;;2.25;66.41
60852;BME280;48553;50.766;2.900;2023-03-01T01:08:45;102327.69;;;2.25;66.57
60852;BME280;48553;50.766;2.900;2023-03-01T01:11:48;102324.63;;;2.22;66.69
60852;BME280;48553;50.766;2.900;2023-03-01T01:14:49;102326.31;;;2.23;66.52
60852;BME280;48553;50.766;2.900;2023-03-01T01:17:50;102321.34;;;2.20;67.12
60852;BME280;48553;50.766;2.900;2023-03-01T01:20:50;102324.31;;;2.18;66.71
60852;BME280;48553;50.766;2.900;2023-03-01T01:23:50;102319.72;;;2.19;66.81
60852;BME280;48553;50.766;2.900;2023-03-01T01:26:51;102309.50;;;2.21;66.82
60852;BME280;48553;50.766;2.900;2023-03-01T01:29:52;102314.31;;;2.19;66.83
60852;BME280;48553;50.766;2.900;2023-03-01T01:32:53;102297.50;;;2.17;67.20
60852;BME280;48553;50.766;2.900;2023-03-01T01:35:53;102300.44;;;2.15;67.29
60852;BME280;48553;50.766;2.900;2023-03-01T01:38:54;102287.19;;;2.14;66.92
60852;BME280;48553;50.766;2.900;2023-03-01T01:41:55;102287.19;;;2.14;67.33
60852;BME280;48553;50.766;2.900;2023-03-01T01:48:29;102291.16;;;2.11;67.14
60852;BME280;48553;50.766;2.900;2023-03-01T01:51:42;102284.63;;;2.07;67.57
60852;BME280;48553;50.766;2.900;2023-03-01T01:58:02;102283.53;;;2.08;67.32
60852;BME280;48553;50.766;2.900;2023-03-01T02:01:05;102285.44;;;2.07;67.36
60852;BME280;48553;50.766;2.900;2023-03-01T02:04:06;102285.06;;;2.04;67.49
60852;BME280;48553;50.766;2.900;2023-03-01T02:07:14;102289.66;;;2.03;67.14
60852;BME280;48553;50.766;2.900;2023-03-01T02:10:15;102285.06;;;2.04;67.94
60852;BME280;48553;50.766;2.900;2023-03-01T02:13:16;102276.63;;;2.00;67.89
60852;BME280;48553;50.766;2.900;2023-03-01T02:16:17;102281.19;;;2.00;67.87
60852;BME280;48553;50.766;2.900;2023-03-01T02:19:33;102273.34;;;1.98;67.67
60852;BME280;48553;50.766;2.900;2023-03-01T02:22:40;102274.50;;;2.02;67.39
60852;BME280;48553;50.766;2.900;2023-03-01T02:26:07;102266.88;;;1.99;68.00
60852;BME280;48553;50.766;2.900;2023-03-01T02:29:09;102259.84;;;1.98;67.58
60852;BME280;48553;50.766;2.900;2023-03-01T02:32:11;102254.66;;;1.97;68.27
60852;BME280;48553;50.766;2.900;2023-03-01T02:35:14;102251.94;;;1.97;67.82
60852;BME280;48553;50.766;2.900;2023-03-01T02:38:16;102250.56;;;1.94;68.13
60852;BME280;48553;50.766;2.900;2023-03-01T02:41:19;102241.63;;;1.94;67.89
60852;BME280;48553;50.766;2.900;2023-03-01T02:44:21;102245.97;;;1.95;68.00
60852;BME280;48553;50.766;2.900;2023-03-01T02:47:21;102237.25;;;1.93;68.31
60852;BME280;48553;50.766;2.900;2023-03-01T02:54:09;102237.16;;;1.87;67.89
60852;BME280;48553;50.766;2.900;2023-03-01T02:57:11;102227.19;;;1.88;67.93
60852;BME280;48553;50.766;2.900;2023-03-01T03:00:15;102235.88;;;1.90;68.06
60852;BME280;48553;50.766;2.900;2023-03-01T03:03:20;102228.25;;;1.87;68.10
60852;BME280;48553;50.766;2.900;2023-03-01T03:06:21;102221.44;;;1.84;68.33
60852;BME280;48553;50.766;2.900;2023-03-01T03:09:22;102223.56;;;1.82;68.29
60852;BME280;48553;50.766;2.900;2023-03-01T03:12:22;102223.31;;;1.84;68.19
60852;BME280;48553;50.766;2.900;2023-03-01T03:15:24;102221.09;;;1.81;68.44
60852;BME280;48553;50.766;2.900;2023-03-01T03:18:24;102218.06;;;1.77;68.61
60852;BME280;48553;50.766;2.900;2023-03-01T03:21:28;102217.00;;;1.78;68.26
60852;BME280;48553;50.766;2.900;2023-03-01T03:24:28;102209.97;;;1.77;68.32
60852;BME280;48553;50.766;2.900;2023-03-01T03:27:38;102212.66;;;1.77;68.45
60852;BME280;48553;50.766;2.900;2023-03-01T03:30:40;102212.88;;;1.76;68.32
60852;BME280;48553;50.766;2.900;2023-03-01T03:33:41;102213.13;;;1.74;67.90
60852;BME280;48553;50.766;2.900;2023-03-01T03:36:41;102207.97;;;1.73;68.47
60852;BME280;48553;50.766;2.900;2023-03-01T03:39:42;102212.53;;;1.72;68.49
60852;BME280;48553;50.766;2.900;2023-03-01T03:42:42;102212.78;;;1.71;68.03
60852;BME280;48553;50.766;2.900;2023-03-01T03:45:50;102203.84;;;1.70;68.65
60852;BME280;48553;50.766;2.900;2023-03-01T03:48:51;102197.84;;;1.68;68.24
60852;BME280;48553;50.766;2.900;2023-03-01T03:51:51;102207.28;;;1.65;68.84
60852;BME280;48553;50.766;2.900;2023-03-01T03:54:52;102197.84;;;1.68;68.61
60852;BME280;48553;50.766;2.900;2023-03-01T03:57:52;102205.16;;;1.67;69.03
60852;BME280;48553;50.766;2.900;2023-03-01T04:00:56;102200.00;;;1.66;68.87
60852;BME280;48553;50.766;2.900;2023-03-01T04:03:57;102194.03;;;1.64;68.66
60852;BME280;48553;50.766;2.900;2023-03-01T04:07:03;102194.25;;;1.62;68.64
60852;BME280;48553;50.766;2.900;2023-03-01T04:10:06;102200.72;;;1.61;68.88
60852;BME280;48553;50.766;2.900;2023-03-01T04:13:10;102199.88;;;1.61;69.14
60852;BME280;48553;50.766;2.900;2023-03-01T04:16:11;102198.84;;;1.62;68.78
60852;BME280;48553;50.766;2.900;2023-03-01T04:19:11;102206.34;;;1.60;68.82
60852;BME280;48553;50.766;2.900;2023-03-01T04:22:12;102205.53;;;1.59;68.70
60852;BME280;48553;50.766;2.900;2023-03-01T04:25:17;102214.97;;;1.57;68.96
60852;BME280;48553;50.766;2.900;2023-03-01T04:28:18;102206.00;;;1.56;69.12
60852;BME280;48553;50.766;2.900;2023-03-01T04:31:19;102200.59;;;1.56;69.04
60852;BME280;48553;50.766;2.900;2023-03-01T04:34:21;102200.59;;;1.56;69.14
60852;BME280;48553;50.766;2.900;2023-03-01T04:37:21;102203.56;;;1.55;69.24
60852;BME280;48553;50.766;2.900;2023-03-01T04:40:22;102206.50;;;1.53;69.36
60852;BME280;48553;50.766;2.900;2023-03-01T04:43:22;102193.22;;;1.52;69.42
60852;BME280;48553;50.766;2.900;2023-03-01T04:46:23;102189.94;;;1.50;69.25
60852;BME280;48553;50.766;2.900;2023-03-01T04:49:23;102196.19;;;1.50;69.10
60852;BME280;48553;50.766;2.900;2023-03-01T04:52:23;102194.50;;;1.49;69.29
60852;BME280;48553;50.766;2.900;2023-03-01T04:55:28;102182.66;;;1.50;69.53
60852;BME280;48553;50.766;2.900;2023-03-01T04:58:29;102180.41;;;1.47;69.55
60852;BME280;48553;50.766;2.900;2023-03-01T05:01:29;102182.66;;;1.50;69.46
60852;BME280;48553;50.766;2.900;2023-03-01T05:04:30;102176.41;;;1.50;69.40
60852;BME280;48553;50.766;2.900;2023-03-01T05:07:30;102178.53;;;1.48;69.52
60852;BME280;48553;50.766;2.900;2023-03-01T05:10:32;102168.81;;;1.46;69.58
60852;BME280;48553;50.766;2.900;2023-03-01T05:13:39;102170.69;;;1.46;69.68
60852;BME280;48553;50.766;2.900;2023-03-01T05:16:39;102172.81;;;1.44;69.93
60852;BME280;48553;50.766;2.900;2023-03-01T05:19:40;102174.44;;;1.45;70.05
60852;BME280;48553;50.766;2.900;2023-03-01T05:22:42;102166.59;;;1.43;69.77
60852;BME280;48553;50.766;2.900;2023-03-01T05:25:43;102164.69;;;1.44;69.72
60852;BME280;48553;50.766;2.900;2023-03-01T05:28:44;102162.22;;;1.42;69.98
60852;BME280;48553;50.766;2.900;2023-03-01T05:31:44;102156.50;;;1.39;69.92
60852;BME280;48553;50.766;2.900;2023-03-01T05:34:45;102161.66;;;1.40;70.07
60852;BME280;48553;50.766;2.900;2023-03-01T05:37:48;102161.91;;;1.39;69.98
60852;BME280;48553;50.766;2.900;2023-03-01T05:40:49;102163.31;;;1.41;69.52
60852;BME280;48553;50.766;2.900;2023-03-01T05:43:49;102162.94;;;1.38;69.71
60852;BME280;48553;50.766;2.900;2023-03-01T05:46:50;102153.44;;;1.35;69.67
60852;BME280;48553;50.766;2.900;2023-03-01T05:49:50;102138.31;;;1.34;69.94
60852;BME280;48553;50.766;2.900;2023-03-01T05:52:58;102142.88;;;1.34;69.90
60852;BME280;48553;50.766;2.900;2023-03-01T05:55:59;102132.34;;;1.32;70.12
60852;BME280;48553;50.766;2.900;2023-03-01T05:59:01;102133.72;;;1.35;70.18
60852;BME280;48553;50.766;2.900;2023-03-01T06:02:02;102128.78;;;1.32;70.19
60852;BME280;48553;50.766;2.900;2023-03-01T06:05:02;102132.34;;;1.32;70.29
60852;BME280;48553;50.766;2.900;2023-03-01T06:08:03;102127.16;;;1.31;70.45
60852;BME280;48553;50.766;2.900;2023-03-01T06:11:03;102126.34;;;1.30;70.06
60852;BME280;48553;50.766;2.900;2023-03-01T06:14:05;102122.84;;;1.30;70.13
60852;BME280;48553;50.766;2.900;2023-03-01T06:17:06;102123.38;;;1.32;70.01
60852;BME280;48553;50.766;2.900;2023-03-01T06:20:13;102123.38;;;1.32;69.80
60852;BME280;48553;50.766;2.900;2023-03-01T06:23:14;102122.00;;;1.29;70.18
60852;BME280;48553;50.766;2.900;2023-03-01T06:26:15;102124.09;;;1.27;70.44
60852;BME280;48553;50.766;2.900;2023-03-01T06:29:15;102128.69;;;1.27;70.49
60852;BME280;48553;50.766;2.900;2023-03-01T06:32:15;102134.09;;;1.27;70.37
60852;BME280;48553;50.766;2.900;2023-03-01T06:35:17;102126.25;;;1.25;69.92
60852;BME280;48553;50.766;2.900;2023-03-01T06:38:18;102128.69;;;1.27;70.18
60852;BME280;48553;50.766;2.900;2023-03-01T06:41:19;102132.47;;;1.25;70.40
60852;BME280;48553;50.766;2.900;2023-03-01T06:44:19;102137.28;;;1.23;70.35
60852;BME280;48553;50.766;2.900;2023-03-01T06:47:20;102144.56;;;1.23;70.56
60852;BME280;48553;50.766;2.900;2023-03-01T06:50:20;102147.72;;;1.20;70.36
60852;BME280;48553;50.766;2.900;2023-03-01T06:53:20;102146.44;;;1.22;70.21
60852;BME280;48553;50.766;2.900;2023-03-01T06:56:21;102150.41;;;1.20;70.59
60852;BME280;48553;50.766;2.900;2023-03-01T06:59:21;102143.72;;;1.22;70.25
60852;BME280;48553;50.766;2.900;2023-03-01T07:02:22;102158.97;;;1.29;70.47
60852;BME280;48553;50.766;2.900;2023-03-01T07:05:22;102157.44;;;1.33;70.09
60852;BME280;48553;50.766;2.900;2023-03-01T07:08:23;102153.22;;;1.37;70.07
60852;BME280;48553;50.766;2.900;2023-03-01T07:11:23;102156.25;;;1.40;70.01
60852;BME280;48553;50.766;2.900;2023-03-01T07:14:24;102159.88;;;1.46;69.91
60852;BME280;48553;50.766;2.900;2023-03-01T07:17:25;102151.53;;;1.48;70.00
60852;BME280;48553;50.766;2.900;2023-03-01T07:20:26;102154.66;;;1.56;70.00
60852;BME280;48553;50.766;2.900;2023-03-01T07:23:26;102149.38;;;1.61;69.97
60852;BME280;48553;50.766;2.900;2023-03-01T07:26:27;102150.06;;;1.69;69.93
60852;BME280;48553;50.766;2.900;2023-03-01T07:29:27;102142.63;;;1.76;70.03
60852;BME280;48553;50.766;2.900;2023-03-01T07:32:28;102147.63;;;1.84;69.43
60852;BME280;48553;50.766;2.900;2023-03-01T07:35:29;102144.53;;;1.92;69.21
60852;BME280;48553;50.766;2.900;2023-03-01T07:38:30;102141.09;;;1.97;69.72
60852;BME280;48553;50.766;2.900;2023-03-01T07:41:30;102143.50;;;2.10;69.11
60852;BME280;48553;50.766;2.900;2023-03-01T07:44:31;102135.81;;;2.19;68.98
60852;BME280;48553;50.766;2.900;2023-03-01T07:47:31;102142.75;;;2.32;68.89
60852;BME280;48553;50.766;2.900;2023-03-01T07:50:32;102138.28;;;2.37;68.73
60852;BME280;48553;50.766;2.900;2023-03-01T07:53:33;102136.56;;;2.48;68.42
60852;BME280;48553;50.766;2.900;2023-03-01T07:56:34;102144.25;;;2.56;68.58
60852;BME280;48553;50.766;2.900;2023-03-01T07:59:35;102135.47;;;2.66;68.21
60852;BME280;48553;50.766;2.900;2023-03-01T08:02:35;102133.16;;;2.75;68.00
60852;BME280;48553;50.766;2.900;2023-03-01T08:05:35;102135.44;;;2.83;67.93
60852;BME280;48553;50.766;2.900;2023-03-01T08:08:36;102130.09;;;2.88;67.74
60852;BME280;48553;50.766;2.900;2023-03-01T08:14:42;102129.22;;;3.04;67.77
60852;BME280;48553;50.766;2.900;2023-03-01T08:17:43;102123.38;;;3.12;67.31
60852;BME280;48553;50.766;2.900;2023-03-01T08:20:43;102119.91;;;3.17;67.31
60852;BME280;48553;50.766;2.900;2023-03-01T08:23:44;102116.25;;;3.28;67.37
60852;BME280;48553;50.766;2.900;2023-03-01T08:26:45;102116.97;;;3.41;67.21
60852;BME280;48553;50.766;2.900;2023-03-01T08:29:45;102123.56;;;3.50;67.24
60852;BME280;48553;50.766;2.900;2023-03-01T08:32:45;102124.75;;;3.59;66.88
60852;BME280;48553;50.766;2.900;2023-03-01T08:35:46;102117.53;;;3.70;66.77
60852;BME280;48553;50.766;2.900;2023-03-01T08:38:47;102113.03;;;3.81;66.28
60852;BME280;48553;50.766;2.900;2023-03-01T08:41:47;102123.72;;;3.92;66.30
60852;BME280;48553;50.766;2.900;2023-03-01T08:44:47;102118.13;;;4.04;66.18
60852;BME280;48553;50.766;2.900;2023-03-01T08:47:52;102108.19;;;4.15;66.00
60852;BME280;48553;50.766;2.900;2023-03-01T08:50:52;102103.13;;;4.29;65.71
60852;BME280;48553;50.766;2.900;2023-03-01T08:53:53;102109.47;;;4.39;65.38
60852;BME280;48553;50.766;2.900;2023-03-01T08:56:53;102101.91;;;4.47;65.35
60852;BME280;48553;50.766;2.900;2023-03-01T08:59:54;102115.28;;;4.58;65.56
60852;BME280;48553;50.766;2.900;2023-03-01T09:02:56;102108.84;;;4.70;65.36
60852;BME280;48553;50.766;2.900;2023-03-01T09:06:00;102111.38;;;4.81;65.67
60852;BME280;48553;50.766;2.900;2023-03-01T09:09:03;102100.25;;;4.88;65.61
60852;BME280;48553;50.766;2.900;2023-03-01T09:12:04;102097.84;;;4.97;65.60
60852;BME280;48553;50.766;2.900;2023-03-01T09:15:05;102092.50;;;5.12;65.42
60852;BME280;48553;50.766;2.900;2023-03-01T09:18:06;102095.53;;;5.26;65.61
60852;BME280;48553;50.766;2.900;2023-03-01T09:21:09;102088.50;;;5.35;64.83
60852;BME280;48553;50.766;2.900;2023-03-01T09:24:13;102083.09;;;5.46;65.07
60852;BME280;48553;50.766;2.900;2023-03-01T09:27:14;102083.13;;;5.61;64.71
60852;BME280;48553;50.766;2.900;2023-03-01T09:30:15;102080.97;;;5.68;64.94
60852;BME280;48553;50.766;2.900;2023-03-01T09:33:15;102091.03;;;5.83;64.79
60852;BME280;48553;50.766;2.900;2023-03-01T09:36:18;102083.72;;;5.94;64.38
60852;BME280;48553;50.766;2.900;2023-03-01T09:39:20;102074.50;;;6.05;64.12
60852;BME280;48553;50.766;2.900;2023-03-01T09:42:21;102065.25;;;6.16;64.07
60852;BME280;48553;50.766;2.900;2023-03-01T09:45:43;102067.94;;;6.26;63.64
60852;BME280;48553;50.766;2.900;2023-03-01T09:48:55;102074.19;;;6.32;63.54
60852;BME280;48553;50.766;2.900;2023-03-01T09:51:58;102075.28;;;6.41;63.73
60852;BME280;48553;50.766;2.900;2023-03-01T09:54:59;102067.38;;;6.50;63.05
60852;BME280;48553;50.766;2.900;2023-03-01T09:58:27;102080.72;;;6.57;62.80
60852;BME280;48553;50.766;2.900;2023-03-01T10:04:45;102060.75;;;6.82;62.18
60852;BME280;48553;50.766;2.900;2023-03-01T10:11:37;102054.13;;;6.98;61.81
60852;BME280;48553;50.766;2.900;2023-03-01T10:17:57;102040.97;;;7.16;61.41
60852;BME280;48553;50.766;2.900;2023-03-01T10:21:03;102043.09;;;7.29;61.24
60852;BME280;48553;50.766;2.900;2023-03-01T10:24:18;102042.53;;;7.32;60.76
60852;BME280;48553;50.766;2.900;2023-03-01T10:27:26;102042.22;;;7.39;60.54
60852;BME280;48553;50.766;2.900;2023-03-01T10:30:35;102038.28;;;7.55;60.39
60852;BME280;48553;50.766;2.900;2023-03-01T10:33:38;102032.25;;;7.58;60.13
60852;BME280;48553;50.766;2.900;2023-03-01T10:36:41;102027.06;;;7.62;59.81
60852;BME280;48553;50.766;2.900;2023-03-01T10:40:08;102028.66;;;7.68;59.72
60852;BME280;48553;50.766;2.900;2023-03-01T10:43:12;102029.13;;;7.75;59.28
60852;BME280;48553;50.766;2.900;2023-03-01T10:49:28;102017.25;;;7.95;58.96
60852;BME280;48553;50.766;2.900;2023-03-01T10:52:36;102020.81;;;8.20;59.41
60852;BME280;48553;50.766;2.900;2023-03-01T10:55:39;102016.13;;;8.25;58.75
60852;BME280;48553;50.766;2.900;2023-03-01T10:59:00;102006.47;;;8.33;58.42
60852;BME280;48553;50.766;2.900;2023-03-01T11:08:13;102012.19;;;8.66;58.17
60852;BME280;48553;50.766;2.900;2023-03-01T11:11:31;102000.88;;;8.72;57.48
60852;BME280;48553;50.766;2.900;2023-03-01T11:14:36;101999.06;;;8.87;58.00
60852;BME280;48553;50.766;2.900;2023-03-01T11:17:39;102000.19;;;9.05;57.82
60852;BME280;48553;50.766;2.900;2023-03-01T11:20:43;102003.13;;;9.08;56.59
60852;BME280;48553;50.766;2.900;2023-03-01T11:23:45;101995.41;;;9.15;57.03
60852;BME280;48553;50.766;2.900;2023-03-01T11:26:56;101980.00;;;9.19;57.44
60852;BME280;48553;50.766;2.900;2023-03-01T11:30:07;101973.78;;;9.33;56.85
60852;BME280;48553;50.766;2.900;2023-03-01T11:37:29;101974.47;;;9.44;55.78
60852;BME280;48553;50.766;2.900;2023-03-01T11:44:25;101961.56;;;9.63;56.31
60852;BME280;48553;50.766;2.900;2023-03-01T11:50:49;101967.69;;;9.88;56.22
60852;BME280;48553;50.766;2.900;2023-03-01T12:07:15;101948.66;;;10.10;55.70
60852;BME280;48553;50.766;2.900;2023-03-01T12:17:02;101923.41;;;10.27;55.73
60852;BME280;48553;50.766;2.900;2023-03-01T12:33:08;101905.56;;;10.57;55.56
60852;BME280;48553;50.766;2.900;2023-03-01T12:50:18;101869.66;;;10.81;55.55
60852;BME280;48553;50.766;2.900;2023-03-01T12:53:29;101860.00;;;10.84;55.36
60852;BME280;48553;50.766;2.900;2023-03-01T12:56:34;101850.63;;;10.85;55.62
60852;BME280;48553;50.766;2.900;2023-03-01T12:59:39;101843.91;;;10.91;55.93
60852;BME280;48553;50.766;2.900;2023-03-01T13:02:58;101846.03;;;10.94;55.18
60852;BME280;48553;50.766;2.900;2023-03-01T13:06:11;101845.94;;;10.99;55.42
60852;BME280;48553;50.766;2.900;2023-03-01T13:15:51;101838.63;;;11.17;55.38
60852;BME280;48553;50.766;2.900;2023-03-01T13:19:06;101834.75;;;11.18;55.45
60852;BME280;48553;50.766;2.900;2023-03-01T13:22:36;101830.56;;;11.21;55.78
60852;BME280;48553;50.766;2.900;2023-03-01T13:28:58;101831.22;;;11.18;54.93
60852;BME280;48553;50.766;2.900;2023-03-01T13:32:01;101814.75;;;11.18;55.40
60852;BME280;48553;50.766;2.900;2023-03-01T13:41:55;101794.25;;;11.24;55.27
60852;BME280;48553;50.766;2.900;2023-03-01T13:44:57;101792.47;;;11.19;55.21
60852;BME280;48553;50.766;2.900;2023-03-01T13:48:01;101793.91;;;11.17;54.65
60852;BME280;48553;50.766;2.900;2023-03-01T13:51:07;101787.31;;;11.18;54.73
60852;BME280;48553;50.766;2.900;2023-03-01T13:54:11;101789.25;;;11.17;54.75
60852;BME280;48553;50.766;2.900;2023-03-01T13:57:20;101783.56;;;11.14;55.19
60852;BME280;48553;50.766;2.900;2023-03-01T14:00:29;101773.41;;;11.14;54.52
60852;BME280;48553;50.766;2.900;2023-03-01T14:03:33;101773.22;;;11.11;55.16
60852;BME280;48553;50.766;2.900;2023-03-01T14:06:34;101773.03;;;11.07;54.36
60852;BME280;48553;50.766;2.900;2023-03-01T14:09:40;101775.91;;;11.02;54.58
60852;BME280;48553;50.766;2.900;2023-03-01T14:14:00;101764.31;;;11.05;54.86
60852;BME280;48553;50.766;2.900;2023-03-01T14:20:30;101760.56;;;11.01;55.01
60852;BME280;48553;50.766;2.900;2023-03-01T14:23:29;101755.72;;;10.98;54.90
60852;BME280;48553;50.766;2.900;2023-03-01T14:26:32;101741.28;;;10.83;54.04
60852;BME280;48553;50.766;2.900;2023-03-01T14:29:37;101743.19;;;10.83;54.45
60852;BME280;48553;50.766;2.900;2023-03-01T14:32:38;101732.34;;;10.78;54.30
60852;BME280;48553;50.766;2.900;2023-03-01T14:35:39;101726.69;;;10.74;55.24
60852;BME280;48553;50.766;2.900;2023-03-01T14:38:44;101716.69;;;10.70;54.54
60852;BME280;48553;50.766;2.900;2023-03-01T14:41:45;101713.25;;;10.64;54.96
60852;BME280;48553;50.766;2.900;2023-03-01T14:44:47;101726.75;;;10.60;54.69
60852;BME280;48553;50.766;2.900;2023-03-01T14:47:50;101714.81;;;10.56;54.93
60852;BME280;48553;50.766;2.900;2023-03-01T14:50:51;101715.41;;;10.53;54.34
60852;BME280;48553;50.766;2.900;2023-03-01T14:53:52;101713.09;;;10.47;54.37
60852;BME280;48553;50.766;2.900;2023-03-01T14:56:57;101706.44;;;10.39;53.79
60852;BME280;48553;50.766;2.900;2023-03-01T15:00:03;101705.94;;;10.37;54.50
60852;BME280;48553;50.766;2.900;2023-03-01T15:03:24;101704.22;;;10.27;53.76
60852;BME280;48553;50.766;2.900;2023-03-01T15:06:25;101705.97;;;10.23;54.24
60852;BME280;48553;50.766;2.900;2023-03-01T15:09:26;101702.56;;;10.17;53.35
60852;BME280;48553;50.766;2.900;2023-03-01T15:15:36;101692.81;;;10.11;54.36
60852;BME280;48553;50.766;2.900;2023-03-01T15:18:48;101686.53;;;10.11;54.27
60852;BME280;48553;50.766;2.900;2023-03-01T15:21:49;101690.00;;;10.02;54.83
60852;BME280;48553;50.766;2.900;2023-03-01T15:24:50;101691.22;;;9.96;54.45
60852;BME280;48553;50.766;2.900;2023-03-01T15:27:52;101685.06;;;9.91;54.79
60852;BME280;48553;50.766;2.900;2023-03-01T15:31:23;101679.00;;;9.80;54.43
60852;BME280;48553;50.766;2.900;2023-03-01T15:34:28;101675.66;;;9.69;54.60
60852;BME280;48553;50.766;2.900;2023-03-01T15:40:49;101670.63;;;9.49;55.00
60852;BME280;48553;50.766;2.900;2023-03-01T15:43:49;101676.84;;;9.40;55.13
60852;BME280;48553;50.766;2.900;2023-03-01T15:46:50;101676.44;;;9.33;55.46
60852;BME280;48553;50.766;2.900;2023-03-01T15:49:52;101667.00;;;9.26;55.89
60852;BME280;48553;50.766;2.900;2023-03-01T15:52:54;101657.59;;;9.18;54.84
60852;BME280;48553;50.766;2.900;2023-03-01T15:55:55;101651.72;;;9.11;55.02
60852;BME280;48553;50.766;2.900;2023-03-01T15:59:00;101648.88;;;9.02;55.97
60852;BME280;48553;50.766;2.900;2023-03-01T16:02:01;101654.13;;;8.98;55.85
60852;BME280;48553;50.766;2.900;2023-03-01T16:05:02;101653.50;;;8.88;55.83
60852;BME280;48553;50.766;2.900;2023-03-01T16:08:03;101648.44;;;8.81;55.86
60852;BME280;48553;50.766;2.900;2023-03-01T16:11:05;101652.06;;;8.76;55.75
60852;BME280;48553;50.766;2.900;2023-03-01T16:14:09;101635.84;;;8.66;55.96
60852;BME280;48553;50.766;2.900;2023-03-01T16:17:10;101645.56;;;8.59;55.86
60852;BME280;48553;50.766;2.900;2023-03-01T16:20:10;101635.31;;;8.50;56.08
60852;BME280;48553;50.766;2.900;2023-03-01T16:23:11;101641.47;;;8.42;56.43
60852;BME280;48553;50.766;2.900;2023-03-01T16:26:12;101640.19;;;8.34;56.58
60852;BME280;48553;50.766;2.900;2023-03-01T16:29:13;101643.81;;;8.30;56.32
60852;BME280;48553;50.766;2.900;2023-03-01T16:32:14;101642.59;;;8.22;56.83
60852;BME280;48553;50.766;2.900;2023-03-01T16:35:17;101639.13;;;8.16;56.79
60852;BME280;48553;50.766;2.900;2023-03-01T16:38:18;101639.22;;;8.11;57.30
60852;BME280;48553;50.766;2.900;2023-03-01T16:41:21;101631.16;;;8.01;56.70
60852;BME280;48553;50.766;2.900;2023-03-01T16:44:22;101630.97;;;7.98;57.03
60852;BME280;48553;50.766;2.900;2023-03-01T16:47:22;101637.50;;;7.97;56.76
60852;BME280;48553;50.766;2.900;2023-03-01T16:50:23;101626.16;;;7.89;57.23
60852;BME280;48553;50.766;2.900;2023-03-01T16:53:23;101627.31;;;7.83;57.25
60852;BME280;48553;50.766;2.900;2023-03-01T16:56:24;101633.16;;;7.77;57.40
60852;BME280;48553;50.766;2.900;2023-03-01T16:59:24;101635.75;;;7.68;57.69
60852;BME280;48553;50.766;2.900;2023-03-01T17:02:24;101632.28;;;7.62;57.60
60852;BME280;48553;50.766;2.900;2023-03-01T17:05:26;101627.41;;;7.59;57.67
60852;BME280;48553;50.766;2.900;2023-03-01T17:08:26;101618.47;;;7.53;57.92
60852;BME280;48553;50.766;2.900;2023-03-01T17:11:27;101626.72;;;7.48;57.95
60852;BME280;48553;50.766;2.900;2023-03-01T17:14:27;101630.06;;;7.45;58.20
60852;BME280;48553;50.766;2.900;2023-03-01T17:17:28;101633.69;;;7.36;58.16
60852;BME280;48553;50.766;2.900;2023-03-01T17:20:28;101641.88;;;7.36;58.23
60852;BME280;48553;50.766;2.900;2023-03-01T17:23:29;101634.88;;;7.29;58.21
60852;BME280;48553;50.766;2.900;2023-03-01T17:26:30;101640.09;;;7.26;58.88
60852;BME280;48553;50.766;2.900;2023-03-01T17:29:31;101632.06;;;7.16;58.37
60852;BME280;48553;50.766;2.900;2023-03-01T17:32:31;101630.41;;;7.15;58.88
60852;BME280;48553;50.766;2.900;2023-03-01T17:35:32;101637.28;;;7.12;59.04
60852;BME280;48553;50.766;2.900;2023-03-01T17:38:37;101645.50;;;7.07;58.89
60852;BME280;48553;50.766;2.900;2023-03-01T17:41:37;101650.72;;;7.03;58.80
60852;BME280;48553;50.766;2.900;2023-03-01T17:44:38;101661.16;;;6.96;58.95
60852;BME280;48553;50.766;2.900;2023-03-01T17:47:38;101660.91;;;6.93;58.92
60852;BME280;48553;50.766;2.900;2023-03-01T17:50:39;101664.00;;;6.86;59.38
60852;BME280;48553;50.766;2.900;2023-03-01T17:53:39;101665.38;;;6.83;59.25
60852;BME280;48553;50.766;2.900;2023-03-01T17:56:40;101673.59;;;6.78;59.45
60852;BME280;48553;50.766;2.900;2023-03-01T17:59:41;101664.38;;;6.74;59.56
60852;BME280;48553;50.766;2.900;2023-03-01T18:02:43;101669.06;;;6.68;59.51
60852;BME280;48553;50.766;2.900;2023-03-01T18:05:43;101673.69;;;6.68;59.66